createdAt,value
2019-04-22T00:00:45.409Z,32.90
2019-04-22T00:03:23.563Z,32.90
2019-04-22T00:06:22.513Z,33.00
2019-04-22T00:08:55.951Z,33.00
2019-04-22T00:14:10.574Z,33.20
2019-04-22T00:17:00.446Z,33.20
2019-04-22T00:22:05.694Z,33.40
2019-04-22T00:24:31.832Z,33.50
2019-04-22T00:27:13.824Z,33.60
2019-04-22T00:32:39.650Z,33.70
2019-04-22T00:35:11.610Z,33.80
2019-04-22T00:37:51.916Z,33.90
2019-04-22T00:40:30.882Z,34.00
2019-04-22T00:42:58.047Z,34.10
2019-04-22T00:45:40.080Z,34.10
2019-04-22T00:48:16.373Z,34.20
2019-04-22T00:50:55.171Z,34.30
2019-04-22T00:53:29.847Z,34.30
2019-04-22T00:56:27.657Z,34.40
2019-04-22T00:58:50.285Z,34.40
2019-04-22T01:01:26.709Z,34.50
2019-04-22T01:06:38.525Z,34.50
2019-04-22T01:09:16.888Z,34.50
2019-04-22T01:11:59.147Z,34.50
2019-04-22T01:14:37.247Z,34.50
2019-04-22T01:17:11.645Z,34.50
2019-04-22T01:19:58.526Z,34.50
2019-04-22T01:22:22.352Z,34.50
2019-04-22T01:24:57.559Z,34.50
2019-04-22T01:27:33.427Z,34.50
2019-04-22T01:30:02.451Z,34.50
2019-04-22T01:35:26.354Z,34.60
2019-04-22T01:38:04.283Z,34.70
2019-04-22T01:40:57.890Z,34.80
2019-04-22T01:43:34.952Z,34.80
2019-04-22T01:46:08.246Z,34.90
2019-04-22T01:48:39.331Z,35.00
2019-04-22T01:51:08.176Z,35.00
2019-04-22T01:53:58.028Z,35.10
2019-04-22T01:56:27.245Z,35.10
2019-04-22T01:58:58.754Z,35.20
2019-04-22T02:04:30.382Z,35.40
2019-04-22T02:06:57.665Z,35.40
2019-04-22T02:09:38.345Z,35.50
2019-04-22T02:12:14.401Z,35.60
2019-04-22T02:14:44.324Z,35.60
2019-04-22T02:17:25.290Z,35.60
2019-04-22T02:19:57.857Z,35.70
2019-04-22T02:22:50.755Z,35.70
2019-04-22T02:25:08.483Z,35.80
2019-04-22T02:27:45.578Z,35.80
2019-04-22T02:30:30.456Z,35.90
2019-04-22T02:33:18.470Z,36.00
2019-04-22T02:35:51.987Z,36.10
2019-04-22T02:38:19.530Z,36.10
2019-04-22T02:41:06.697Z,36.20
2019-04-22T02:43:34.263Z,36.20
2019-04-22T02:51:16.834Z,36.40
2019-04-22T02:56:31.327Z,36.60
2019-04-22T03:01:47.869Z,36.80
2019-04-22T03:06:55.598Z,36.90
2019-04-22T03:09:35.676Z,36.90
2019-04-22T03:12:11.913Z,36.90
2019-04-22T03:14:48.535Z,36.90
2019-04-22T03:17:18.365Z,37.00
2019-04-22T03:20:04.230Z,37.00
2019-04-22T03:22:22.794Z,37.10
2019-04-22T03:25:33.049Z,37.20
2019-04-22T03:27:34.766Z,37.20
2019-04-22T03:38:31.232Z,37.30
2019-04-22T03:40:54.808Z,37.30
2019-04-22T03:43:35.636Z,37.30
2019-04-22T03:46:06.304Z,37.30
2019-04-22T03:48:45.850Z,37.30
2019-04-22T03:51:25.335Z,37.20
2019-04-22T03:54:02.905Z,37.20
2019-04-22T03:57:07.246Z,37.20
2019-04-22T03:59:22.103Z,37.20
2019-04-22T04:01:57.448Z,37.20
2019-04-22T04:04:27.734Z,37.20
2019-04-22T04:12:20.722Z,37.10
2019-04-22T04:14:57.968Z,37.10
2019-04-22T04:17:28.910Z,37.10
2019-04-22T04:22:54.273Z,37.10
2019-04-22T04:25:29.491Z,37.10
2019-04-22T04:30:30.073Z,37.10
2019-04-22T04:38:13.025Z,37.00
2019-04-22T04:43:41.995Z,37.00
2019-04-22T04:46:11.799Z,37.00
2019-04-22T04:49:00.341Z,37.00
2019-04-22T04:53:58.123Z,37.00
2019-04-22T04:56:35.855Z,37.00
2019-04-22T04:59:16.754Z,37.00
2019-04-22T05:01:44.866Z,37.00
2019-04-22T05:04:25.485Z,37.00
2019-04-22T05:06:59.363Z,37.00
2019-04-22T05:12:33.914Z,37.00
2019-04-22T05:15:12.047Z,37.00
2019-04-22T05:17:43.342Z,37.00
2019-04-22T05:20:24.109Z,37.00
2019-04-22T05:22:51.095Z,37.00
2019-04-22T05:27:59.062Z,37.00
2019-04-22T05:30:40.789Z,37.00
2019-04-22T05:33:26.294Z,37.00
2019-04-22T05:35:53.681Z,37.00
2019-04-22T05:41:09.736Z,37.00
2019-04-22T05:43:49.829Z,37.00
2019-04-22T05:46:25.680Z,37.00
2019-04-22T05:48:59.821Z,37.00
2019-04-22T05:51:43.654Z,37.10
2019-04-22T05:54:14.477Z,37.10
2019-04-22T05:56:42.856Z,37.10
2019-04-22T05:59:32.258Z,37.10
2019-04-22T06:02:02.864Z,37.10
2019-04-22T06:04:47.596Z,37.20
2019-04-22T06:07:22.622Z,37.20
2019-04-22T06:10:03.036Z,37.30
2019-04-22T06:12:26.880Z,37.40
2019-04-22T06:15:24.309Z,37.50
2019-04-22T06:17:59.003Z,37.60
2019-04-22T06:20:26.008Z,37.70
2019-04-22T06:23:04.183Z,37.70
2019-04-22T06:26:05.841Z,37.80
2019-04-22T06:28:25.191Z,37.80
2019-04-22T06:33:27.246Z,37.90
2019-04-22T06:36:02.039Z,38.00
2019-04-22T06:38:40.483Z,38.10
2019-04-22T06:41:24.829Z,38.10
2019-04-22T06:43:58.141Z,38.20
2019-04-22T06:49:09.681Z,38.30
2019-04-22T06:52:08.017Z,38.40
2019-04-22T06:54:45.400Z,38.40
2019-04-22T06:57:30.274Z,38.40
2019-04-22T06:59:52.968Z,38.40
2019-04-22T07:02:33.230Z,38.40
2019-04-22T07:05:08.278Z,38.40
2019-04-22T07:07:38.244Z,38.40
2019-04-22T07:10:30.565Z,38.40
2019-04-22T07:12:56.892Z,38.40
2019-04-22T07:18:11.146Z,38.40
2019-04-22T07:20:50.785Z,38.40
2019-04-22T07:25:57.892Z,38.40
2019-04-22T07:28:29.453Z,38.40
2019-04-22T07:31:10.332Z,38.40
2019-04-22T07:33:55.574Z,38.40
2019-04-22T07:39:01.815Z,38.40
2019-04-22T07:41:38.279Z,38.40
2019-04-22T07:44:19.163Z,38.40
2019-04-22T07:46:59.416Z,38.40
2019-04-22T07:49:35.019Z,38.40
2019-04-22T07:52:03.401Z,38.30
2019-04-22T07:54:43.394Z,38.30
2019-04-22T07:57:20.182Z,38.30
2019-04-22T08:00:01.023Z,38.30
2019-04-22T08:02:37.877Z,38.20
2019-04-22T08:08:10.963Z,38.20
2019-04-22T08:10:31.391Z,38.20
2019-04-22T08:12:57.927Z,38.20
2019-04-22T08:15:47.073Z,38.20
2019-04-22T08:18:17.397Z,38.20
2019-04-22T08:20:54.325Z,38.20
2019-04-22T08:23:31.678Z,38.10
2019-04-22T08:26:05.584Z,38.10
2019-04-22T08:31:29.970Z,38.10
2019-04-22T08:34:01.758Z,38.10
2019-04-22T08:36:31.614Z,38.10
2019-04-22T08:41:39.896Z,38.00
2019-04-22T08:44:35.525Z,38.00
2019-04-22T08:47:04.321Z,38.00
2019-04-22T08:49:42.580Z,37.90
2019-04-22T08:52:26.075Z,37.90
2019-04-22T08:55:01.869Z,37.90
2019-04-22T09:00:07.113Z,37.80
2019-04-22T09:02:55.273Z,37.80
2019-04-22T09:05:42.441Z,37.80
2019-04-22T09:08:09.391Z,37.80
2019-04-22T09:10:46.722Z,37.80
2019-04-22T09:13:14.406Z,37.80
2019-04-22T09:15:50.931Z,37.70
2019-04-22T09:18:32.927Z,37.70
2019-04-22T09:21:16.555Z,37.70
2019-04-22T09:23:44.156Z,37.60
2019-04-22T09:26:18.447Z,37.60
2019-04-22T09:31:29.376Z,37.50
2019-04-22T09:34:01.049Z,37.50
2019-04-22T09:36:45.884Z,37.40
2019-04-22T09:39:14.203Z,37.40
2019-04-22T09:41:53.337Z,37.30
2019-04-22T09:44:48.152Z,37.30
2019-04-22T09:47:29.919Z,37.30
2019-04-22T09:50:01.972Z,37.30
2019-04-22T09:52:37.579Z,37.20
2019-04-22T09:55:12.976Z,37.20
2019-04-22T09:57:46.045Z,37.20
2019-04-22T10:00:20.897Z,37.10
2019-04-22T10:03:00.830Z,37.10
2019-04-22T10:05:40.812Z,37.00
2019-04-22T10:08:22.223Z,37.00
2019-04-22T10:10:49.074Z,36.90
2019-04-22T10:13:32.251Z,36.90
2019-04-22T10:16:08.055Z,36.90
2019-04-22T10:18:38.956Z,36.80
2019-04-22T10:21:14.446Z,36.80
2019-04-22T10:23:53.456Z,36.70
2019-04-22T10:26:28.294Z,36.70
2019-04-22T10:31:37.100Z,36.50
2019-04-22T10:34:05.916Z,36.50
2019-04-22T10:36:31.066Z,36.40
2019-04-22T10:39:06.526Z,36.40
2019-04-22T10:41:41.723Z,36.20
2019-04-22T10:44:17.045Z,36.20
2019-04-22T10:46:53.756Z,36.20
2019-04-22T10:49:28.801Z,36.10
2019-04-22T10:52:04.609Z,36.10
2019-04-22T10:54:39.051Z,36.10
2019-04-22T10:57:18.060Z,36.00
2019-04-22T10:59:52.437Z,36.00
2019-04-22T11:02:27.705Z,35.90
2019-04-22T11:05:03.973Z,35.90
2019-04-22T11:07:49.230Z,35.90
2019-04-22T11:10:35.441Z,35.80
2019-04-22T11:12:58.924Z,35.80
2019-04-22T11:15:33.167Z,35.80
2019-04-22T11:18:09.382Z,35.70
2019-04-22T11:20:44.530Z,35.60
2019-04-22T11:23:20.447Z,35.60
2019-04-22T11:25:55.386Z,35.50
2019-04-22T11:28:31.682Z,35.50
2019-04-22T11:31:12.436Z,35.40
2019-04-22T11:33:50.182Z,35.40
2019-04-22T11:36:30.582Z,35.40
2019-04-22T11:39:09.023Z,35.30
2019-04-22T11:41:42.118Z,35.30
2019-04-22T11:44:17.251Z,35.20
2019-04-22T11:46:54.013Z,35.20
2019-04-22T11:49:32.014Z,35.20
2019-04-22T11:52:12.499Z,35.20
2019-04-22T11:54:46.723Z,35.10
2019-04-22T11:57:21.449Z,35.00
2019-04-22T11:59:56.553Z,35.00
2019-04-22T12:02:34.309Z,35.00
2019-04-22T12:05:10.077Z,35.00
2019-04-22T12:07:44.948Z,34.90
2019-04-22T12:10:29.593Z,34.80
2019-04-22T12:12:55.533Z,34.80
2019-04-22T12:15:30.954Z,34.80
2019-04-22T12:18:07.029Z,34.80
2019-04-22T12:20:41.547Z,34.70
2019-04-22T12:23:16.924Z,34.70
2019-04-22T12:25:58.247Z,34.70
2019-04-22T12:28:26.854Z,34.70
2019-04-22T12:31:01.643Z,34.70
2019-04-22T12:33:37.048Z,34.60
2019-04-22T12:36:12.906Z,34.60
2019-04-22T12:38:47.521Z,34.60
2019-04-22T12:41:21.881Z,34.60
2019-04-22T12:43:56.423Z,34.60
2019-04-22T12:46:30.490Z,34.50
2019-04-22T12:49:04.589Z,34.50
2019-04-22T12:51:39.003Z,34.50
2019-04-22T12:54:15.091Z,34.50
2019-04-22T12:56:49.209Z,34.40
2019-04-22T12:59:23.568Z,34.40
2019-04-22T13:01:58.611Z,34.50
2019-04-22T13:04:34.331Z,34.40
2019-04-22T13:07:08.436Z,34.40
2019-04-22T13:09:43.274Z,34.40
2019-04-22T13:12:19.250Z,34.40
2019-04-22T13:14:54.796Z,34.40
2019-04-22T13:17:29.197Z,34.40
2019-04-22T13:20:03.149Z,34.40
2019-04-22T13:22:38.775Z,34.40
2019-04-22T13:25:13.529Z,34.40
2019-04-22T13:27:49.077Z,34.40
2019-04-22T13:30:23.423Z,34.40
2019-04-22T13:32:58.746Z,34.40
2019-04-22T13:35:52.229Z,34.40
2019-04-22T13:38:27.050Z,34.40
2019-04-22T13:41:16.410Z,34.40
2019-04-22T13:43:38.732Z,34.40
2019-04-22T13:46:14.497Z,34.40
2019-04-22T13:49:14.575Z,34.40
2019-04-22T13:52:02.353Z,34.40
2019-04-22T13:57:01.284Z,34.40
2019-04-22T13:59:26.095Z,34.40
2019-04-22T14:02:08.670Z,34.40
2019-04-22T14:04:44.449Z,34.30
2019-04-22T14:07:21.022Z,34.30
2019-04-22T14:09:56.102Z,34.30
2019-04-22T14:12:31.003Z,34.30
2019-04-22T14:15:06.285Z,34.30
2019-04-22T14:17:41.118Z,34.30
2019-04-22T14:20:16.577Z,34.20
2019-04-22T14:22:52.569Z,34.20
2019-04-22T14:25:28.406Z,34.20
2019-04-22T14:28:09.166Z,34.20
2019-04-22T14:30:39.773Z,34.20
2019-04-22T14:33:16.000Z,34.10
2019-04-22T14:35:51.936Z,34.10
2019-04-22T14:38:27.953Z,34.10
2019-04-22T14:41:02.867Z,34.10
2019-04-22T14:44:23.281Z,34.10
2019-04-22T14:46:39.006Z,34.10
2019-04-22T14:49:16.570Z,34.10
2019-04-22T14:51:46.450Z,34.10
2019-04-22T14:54:18.395Z,34.10
2019-04-22T14:56:40.394Z,34.00
2019-04-22T14:59:16.598Z,34.00
2019-04-22T15:01:51.671Z,34.00
2019-04-22T15:04:26.891Z,34.00
2019-04-22T15:07:03.240Z,34.00
2019-04-22T15:09:37.998Z,34.00
2019-04-22T15:12:22.748Z,34.00
2019-04-22T15:14:49.016Z,34.00
2019-04-22T15:17:40.812Z,33.90
2019-04-22T15:20:31.880Z,33.90
2019-04-22T15:23:06.806Z,33.90
2019-04-22T15:25:41.046Z,33.90
2019-04-22T15:28:17.419Z,33.90
2019-04-22T15:30:53.246Z,33.90
2019-04-22T15:33:27.936Z,33.90
2019-04-22T15:36:03.592Z,33.80
2019-04-22T15:38:38.439Z,33.80
2019-04-22T15:41:12.828Z,33.90
2019-04-22T15:43:47.745Z,33.90
2019-04-22T15:46:23.522Z,33.90
2019-04-22T15:48:59.924Z,33.80
2019-04-22T15:51:34.388Z,33.80
2019-04-22T15:54:09.734Z,33.70
2019-04-22T15:56:44.531Z,33.80
2019-04-22T15:59:42.805Z,33.80
2019-04-22T16:02:00.221Z,33.80
2019-04-22T16:04:34.698Z,33.80
2019-04-22T16:07:10.736Z,33.70
2019-04-22T16:09:45.745Z,33.70
2019-04-22T16:12:28.644Z,33.70
2019-04-22T16:14:58.919Z,33.70
2019-04-22T16:17:32.969Z,33.70
2019-04-22T16:20:08.998Z,33.60
2019-04-22T16:23:13.124Z,33.60
2019-04-22T16:25:53.588Z,33.60
2019-04-22T16:28:29.156Z,33.50
2019-04-22T16:31:03.967Z,33.40
2019-04-22T16:33:41.450Z,33.40
2019-04-22T16:36:14.344Z,33.40
2019-04-22T16:38:50.942Z,33.30
2019-04-22T16:41:26.876Z,33.30
2019-04-22T16:44:02.609Z,33.30
2019-04-22T16:46:37.464Z,33.30
2019-04-22T16:49:14.017Z,33.30
2019-04-22T16:51:50.215Z,33.30
2019-04-22T16:54:24.491Z,33.30
2019-04-22T16:56:59.779Z,33.30
2019-04-22T16:59:35.166Z,33.30
2019-04-22T17:02:46.514Z,33.30
2019-04-22T17:05:35.901Z,33.20
2019-04-22T17:08:10.340Z,33.20
2019-04-22T17:10:45.941Z,33.20
2019-04-22T17:13:25.019Z,33.10
2019-04-22T17:15:59.058Z,33.10
2019-04-22T17:18:33.089Z,33.10
2019-04-22T17:21:09.173Z,33.10
2019-04-22T17:23:43.744Z,33.10
2019-04-22T17:26:18.819Z,33.20
2019-04-22T17:28:55.405Z,33.10
2019-04-22T17:31:31.020Z,33.10
2019-04-22T17:34:06.714Z,33.10
2019-04-22T17:36:42.355Z,33.20
2019-04-22T17:39:30.447Z,33.10
2019-04-22T17:42:11.246Z,33.10
2019-04-22T17:44:58.849Z,33.10
2019-04-22T17:47:36.463Z,33.10
2019-04-22T17:50:18.275Z,33.20
2019-04-22T17:53:05.460Z,33.20
2019-04-22T17:55:36.437Z,33.10
2019-04-22T17:58:08.120Z,33.10
2019-04-22T18:00:36.593Z,33.10
2019-04-22T18:03:11.839Z,33.10
2019-04-22T18:05:43.730Z,33.00
2019-04-22T18:08:31.662Z,33.00
2019-04-22T18:11:21.775Z,33.00
2019-04-22T18:13:44.636Z,32.90
2019-04-22T18:16:23.397Z,32.90
2019-04-22T18:18:56.870Z,32.90
2019-04-22T18:21:28.882Z,32.80
2019-04-22T18:23:55.358Z,32.90
2019-04-22T18:26:43.581Z,32.90
2019-04-22T18:29:17.738Z,32.80
2019-04-22T18:31:48.993Z,32.90
2019-04-22T18:34:25.531Z,32.90
2019-04-22T18:37:07.744Z,32.90
2019-04-22T18:39:46.447Z,32.90
2019-04-22T18:42:09.431Z,32.90
2019-04-22T18:45:11.459Z,33.00
2019-04-22T18:47:25.089Z,33.00
2019-04-22T18:49:59.628Z,33.00
2019-04-22T18:53:03.258Z,33.00
2019-04-22T18:55:38.835Z,33.00
2019-04-22T18:58:16.871Z,33.10
2019-04-22T19:00:39.657Z,33.00
2019-04-22T19:03:21.647Z,33.00
2019-04-22T19:06:27.621Z,33.00
2019-04-22T19:08:50.562Z,33.00
2019-04-22T19:11:20.980Z,33.00
2019-04-22T19:14:06.029Z,33.00
2019-04-22T19:19:30.340Z,33.00
2019-04-22T19:21:47.636Z,33.00
2019-04-22T19:24:34.118Z,33.00
2019-04-22T19:27:18.862Z,33.00
2019-04-22T19:29:57.650Z,33.00
2019-04-22T19:33:17.676Z,33.00
2019-04-22T19:35:37.818Z,33.00
2019-04-22T19:38:13.247Z,33.00
2019-04-22T19:41:08.346Z,33.00
2019-04-22T19:43:38.861Z,32.90
2019-04-22T19:46:15.220Z,32.90
2019-04-22T19:48:59.848Z,32.90
2019-04-22T19:51:36.911Z,32.90
2019-04-22T19:54:07.683Z,32.80
2019-04-22T19:56:39.039Z,32.80
2019-04-22T19:59:20.724Z,32.70
2019-04-22T20:02:17.817Z,32.70
2019-04-22T20:05:11.021Z,32.70
2019-04-22T20:07:41.727Z,32.70
2019-04-22T20:10:24.877Z,32.70
2019-04-22T20:13:05.602Z,32.70
2019-04-22T20:15:38.749Z,32.60
2019-04-22T20:18:45.186Z,32.60
2019-04-22T20:21:03.723Z,32.60
2019-04-22T20:23:29.369Z,32.60
2019-04-22T20:26:10.468Z,32.50
2019-04-22T20:28:54.637Z,32.50
2019-04-22T20:31:33.600Z,32.50
2019-04-22T20:34:14.421Z,32.50
2019-04-22T20:39:28.958Z,32.50
2019-04-22T20:42:21.324Z,32.50
2019-04-22T20:44:46.079Z,32.50
2019-04-22T20:47:16.466Z,32.50
2019-04-22T20:50:00.714Z,32.50
2019-04-22T20:52:38.694Z,32.50
2019-04-22T20:55:07.751Z,32.50
2019-04-22T20:57:53.643Z,32.40
2019-04-22T21:00:28.094Z,32.40
2019-04-22T21:02:57.664Z,32.40
2019-04-22T21:05:37.985Z,32.40
2019-04-22T21:08:23.829Z,32.40
2019-04-22T21:10:52.033Z,32.40
2019-04-22T21:13:31.760Z,32.40
2019-04-22T21:16:21.669Z,32.40
2019-04-22T21:18:46.105Z,32.40
2019-04-22T21:21:36.326Z,32.40
2019-04-22T21:24:04.811Z,32.40
2019-04-22T21:26:45.380Z,32.40
2019-04-22T21:29:25.366Z,32.40
2019-04-22T21:32:01.574Z,32.40
2019-04-22T21:34:49.099Z,32.40
2019-04-22T21:37:20.588Z,32.40
2019-04-22T21:39:46.595Z,32.30
2019-04-22T21:42:26.585Z,32.40
2019-04-22T21:45:04.753Z,32.40
2019-04-22T21:47:45.989Z,32.30
2019-04-22T21:52:56.913Z,32.30
2019-04-22T21:55:31.720Z,32.20
2019-04-22T21:58:12.175Z,32.20
2019-04-22T22:01:06.412Z,32.20
2019-04-22T22:03:38.673Z,32.10
2019-04-22T22:06:02.944Z,32.10
2019-04-22T22:08:46.075Z,32.10
2019-04-22T22:11:24.120Z,32.10
2019-04-22T22:13:59.211Z,32.00
2019-04-22T22:16:29.453Z,32.00
2019-04-22T22:19:11.770Z,32.00
2019-04-22T22:21:54.141Z,32.00
2019-04-22T22:24:22.595Z,32.00
2019-04-22T22:26:55.610Z,32.00
2019-04-22T22:29:50.359Z,32.00
2019-04-22T22:32:11.169Z,32.00
2019-04-22T22:34:46.459Z,32.00
2019-04-22T22:37:12.132Z,32.00
2019-04-22T22:39:44.853Z,32.00
2019-04-22T22:42:22.598Z,32.00
2019-04-22T22:44:58.920Z,32.00
2019-04-22T22:47:42.217Z,32.00
2019-04-22T22:50:20.608Z,31.90
2019-04-22T22:55:37.393Z,31.80
2019-04-22T22:58:10.281Z,31.80
2019-04-22T23:00:42.781Z,31.80
2019-04-22T23:03:40.000Z,31.70
2019-04-22T23:05:58.941Z,31.60
2019-04-22T23:08:31.205Z,31.60
2019-04-22T23:11:12.093Z,31.60
2019-04-22T23:13:43.089Z,31.60
2019-04-22T23:16:12.967Z,31.50
2019-04-22T23:18:39.532Z,31.50
2019-04-22T23:21:19.323Z,31.50
2019-04-22T23:24:04.389Z,31.50
2019-04-22T23:26:51.946Z,31.50
2019-04-22T23:29:37.080Z,31.40
2019-04-22T23:32:18.114Z,31.40
2019-04-22T23:35:03.590Z,31.40
2019-04-22T23:37:39.505Z,31.30
2019-04-22T23:40:22.087Z,31.30
2019-04-22T23:42:52.829Z,31.30
2019-04-22T23:45:33.254Z,31.30
2019-04-22T23:48:01.010Z,31.30
2019-04-22T23:50:47.705Z,31.30
2019-04-22T23:53:57.480Z,31.30
2019-04-22T23:56:07.839Z,31.30
